Time;durP1;ratioP1;P1;durP2;ratioP2;P2;SDS_P1;SDS_P2;PMS_P1;PMS_P2;Temp;Humidity;BMP_temperature;BMP_pressure;BME280_temperature;BME280_humidity;BME280_pressure;Samples;Min_cycle;Max_cycle;Signal;HPM_P1;HPM_P2
2021/09/27 00:00:09;;;;;;;15.77;7.53;;;;;;;21.14;48.19;99952.69;5072998;28;20024;-37
2021/09/27 00:02:34;;;;;;;11.35;7.53;;;;;;;21.21;48.09;99954.03;5059693;28;20109;-37
2021/09/27 00:05:00;;;;;;;13.02;7.65;;;;;;;21.27;47.96;99952.97;5065763;28;20024;-37
2021/09/27 00:07:27;;;;;;;14.88;7.47;;;;;;;21.32;47.76;99951.34;5069078;28;20416;-37
2021/09/27 00:09:54;;;;;;;20.10;7.88;;;;;;;21.27;47.87;99952.97;5058062;28;20025;-36
2021/09/27 00:12:19;;;;;;;14.90;7.88;;;;;;;21.22;48.51;99950.25;5062860;28;20024;-36
2021/09/27 00:14:45;;;;;;;11.52;7.78;;;;;;;21.10;48.51;99941.59;5063923;28;20051;-37
2021/09/27 00:17:10;;;;;;;15.43;8.18;;;;;;;21.02;48.99;99945.63;5055947;28;20024;-37
2021/09/27 00:19:37;;;;;;;12.57;7.90;;;;;;;20.81;49.08;99944.78;5055749;28;20021;-37
2021/09/27 00:22:03;;;;;;;17.10;8.10;;;;;;;20.81;49.38;99947.47;5065285;28;20512;-37
2021/09/27 00:24:29;;;;;;;11.55;8.10;;;;;;;20.78;49.18;99945.28;5062947;28;20472;-37
2021/09/27 00:26:54;;;;;;;12.80;7.53;;;;;;;20.88;48.83;99948.00;5057740;28;20021;-36
2021/09/27 00:29:19;;;;;;;12.77;7.60;;;;;;;20.66;49.59;99937.41;5069996;28;20024;-36
2021/09/27 00:31:45;;;;;;;12.70;8.02;;;;;;;20.73;49.33;99953.38;5067314;28;20025;-36
2021/09/27 00:34:10;;;;;;;15.75;8.20;;;;;;;20.81;49.36;99949.34;5060261;28;20021;-37
2021/09/27 00:36:36;;;;;;;11.93;7.68;;;;;;;20.77;49.56;99946.38;5060101;28;20071;-37
2021/09/27 00:39:02;;;;;;;15.65;8.05;;;;;;;20.58;50.30;99947.88;5067424;28;20035;-36
2021/09/27 00:41:28;;;;;;;13.40;7.93;;;;;;;20.71;49.69;99942.03;5055229;28;20623;-36
2021/09/27 00:43:53;;;;;;;12.13;7.80;;;;;;;20.66;49.90;99942.81;5065799;28;20021;-36
2021/09/27 00:46:22;;;;;;;10.90;7.22;;;;;;;20.67;49.96;99941.72;5059926;28;20408;-36
2021/09/27 00:48:47;;;;;;;12.88;7.38;;;;;;;20.77;49.83;99942.84;5058402;28;20100;-37
2021/09/27 00:51:18;;;;;;;15.23;7.90;;;;;;;20.79;50.02;99949.63;5068314;28;20090;-37
2021/09/27 00:53:48;;;;;;;17.90;7.90;;;;;;;20.86;49.30;99931.25;5054825;28;20013;-36
2021/09/27 00:56:15;;;;;;;13.48;7.28;;;;;;;20.68;50.10;99939.88;5061673;28;20021;-37
2021/09/27 00:58:40;;;;;;;15.93;8.32;;;;;;;20.64;49.95;99936.88;5062656;28;20052;-37
2021/09/27 01:01:06;;;;;;;15.73;8.00;;;;;;;20.67;49.73;99938.22;5053601;28;20138;-37
2021/09/27 01:03:32;;;;;;;13.45;7.88;;;;;;;20.55;50.47;99943.03;5054919;28;20044;-37
2021/09/27 01:06:36;;;;;;;14.13;8.43;;;;;;;20.42;50.65;99942.44;5061731;28;20453;-37
2021/09/27 01:09:25;;;;;;;15.95;8.07;;;;;;;20.40;51.21;99944.59;5052021;28;20105;-37
2021/09/27 01:12:09;;;;;;;15.68;7.65;;;;;;;20.33;51.85;99956.72;5040993;28;20020;-37
2021/09/27 01:14:40;;;;;;;15.15;8.18;;;;;;;20.38;51.45;99944.03;5058742;28;20037;-37
2021/09/27 01:17:37;;;;;;;15.60;8.15;;;;;;;20.56;50.87;99950.03;5049786;28;20131;-37
2021/09/27 01:20:21;;;;;;;16.45;7.75;;;;;;;20.43;50.97;99954.06;5044512;28;20095;-37
2021/09/27 01:23:05;;;;;;;13.65;8.00;;;;;;;20.35;51.16;99949.94;5057780;28;20032;-37
2021/09/27 01:25:53;;;;;;;12.85;8.02;;;;;;;20.27;51.33;99947.75;5067343;28;20031;-37
2021/09/27 01:28:24;;;;;;;14.60;8.20;;;;;;;20.06;51.77;99949.53;5058999;28;20085;-37
2021/09/27 01:31:18;;;;;;;13.35;8.07;;;;;;;20.02;52.21;99954.66;5070854;28;20036;-37
2021/09/27 01:34:04;;;;;;;16.90;7.97;;;;;;;20.17;51.53;99945.81;5021426;28;20048;-37
2021/09/27 01:36:35;;;;;;;13.40;8.05;;;;;;;20.11;51.61;99942.28;5038675;28;20393;-37
2021/09/27 01:39:10;;;;;;;12.18;7.85;;;;;;;20.17;51.85;99947.72;5043503;28;20153;-37
2021/09/27 01:41:40;;;;;;;13.23;7.97;;;;;;;20.19;51.79;99953.66;5045441;28;20529;-37
2021/09/27 01:44:18;;;;;;;13.82;7.78;;;;;;;20.20;52.09;99956.13;5061802;28;20021;-37
2021/09/27 01:46:55;;;;;;;13.75;8.35;;;;;;;20.13;52.03;99941.22;5062550;28;20395;-36
2021/09/27 01:49:21;;;;;;;14.35;8.13;;;;;;;20.08;52.46;99953.59;5037646;28;20059;-36
2021/09/27 01:52:16;;;;;;;19.77;8.43;;;;;;;20.08;52.38;99950.09;5066196;28;20029;-36
2021/09/27 01:54:53;;;;;;;14.82;8.35;;;;;;;20.19;52.04;99950.97;5045447;28;20084;-37
2021/09/27 01:57:27;;;;;;;13.38;8.43;;;;;;;19.95;52.80;99958.66;5032085;28;20031;-38
2021/09/27 02:00:04;;;;;;;12.82;8.20;;;;;;;20.07;52.45;99951.19;5063807;28;20021;-38
2021/09/27 02:03:20;;;;;;;16.63;9.02;;;;;;;20.02;52.96;99949.25;5060552;28;20503;-38
2021/09/27 02:05:54;;;;;;;11.48;8.00;;;;;;;19.81;53.25;99952.91;5047266;28;20036;-38
2021/09/27 02:08:20;;;;;;;15.27;8.70;;;;;;;19.90;53.00;99948.63;5061016;28;20453;-37
2021/09/27 02:10:45;;;;;;;16.00;8.73;;;;;;;19.96;52.55;99942.19;5064224;28;20119;-37
2021/09/27 02:13:16;;;;;;;17.48;8.60;;;;;;;19.85;52.87;99952.09;5070452;28;20084;-37
2021/09/27 02:15:49;;;;;;;19.90;8.90;;;;;;;19.82;53.05;99960.75;5053469;28;20124;-37
2021/09/27 02:18:22;;;;;;;16.55;8.82;;;;;;;19.69;53.16;99961.16;5060665;28;20112;-38
2021/09/27 02:20:50;;;;;;;16.17;9.20;;;;;;;19.70;53.34;99949.25;5064323;28;20099;-37
2021/09/27 02:23:29;;;;;;;19.65;8.88;;;;;;;19.79;52.92;99950.44;5033586;28;20025;-37
2021/09/27 02:25:55;;;;;;;29.35;18.23;;;;;;;19.74;53.05;99945.00;5062440;28;20025;-37
2021/09/27 02:28:21;;;;;;;22.35;12.35;;;;;;;19.79;53.14;99944.25;5060426;28;20024;-37
2021/09/27 02:31:08;;;;;;;41.63;23.42;;;;;;;19.87;53.50;99947.25;5055910;28;20044;-37
2021/09/27 02:33:57;;;;;;;22.58;12.38;;;;;;;19.80;53.45;99953.97;5066700;28;20090;-38
2021/09/27 02:36:35;;;;;;;19.23;9.60;;;;;;;19.85;53.31;99949.41;5050331;28;20469;-37
2021/09/27 02:39:07;;;;;;;14.38;8.48;;;;;;;19.71;53.85;99946.31;5064254;28;20024;-37
2021/09/27 02:41:50;;;;;;;16.23;9.05;;;;;;;19.77;53.32;99952.59;5050390;28;20041;-38
2021/09/27 02:44:16;;;;;;;14.00;8.43;;;;;;;19.82;52.80;99955.34;5059106;28;20047;-37
2021/09/27 02:46:43;;;;;;;15.43;8.90;;;;;;;19.69;53.28;99951.16;5057321;28;20388;-38
2021/09/27 02:49:13;;;;;;;16.67;9.23;;;;;;;19.56;53.36;99946.19;5065409;28;20056;-37
2021/09/27 02:51:46;;;;;;;16.13;9.02;;;;;;;19.77;52.32;99944.50;5038141;28;20054;-38
2021/09/27 02:54:13;;;;;;;25.63;15.10;;;;;;;19.56;52.26;99950.78;5061226;28;20493;-37
2021/09/27 02:56:47;;;;;;;55.40;34.92;;;;;;;19.37;53.77;99953.88;5060777;28;20672;-38
2021/09/27 02:59:19;;;;;;;30.95;15.85;;;;;;;19.39;54.09;99956.31;5068027;28;20061;-38
2021/09/27 03:01:50;;;;;;;19.33;10.88;;;;;;;19.45;53.26;99953.38;5064725;28;20036;-35
2021/09/27 03:04:44;;;;;;;16.48;9.82;;;;;;;19.53;53.23;99954.81;5059844;28;20049;-38
2021/09/27 03:07:43;;;;;;;15.18;9.52;;;;;;;19.50;53.24;99956.13;5065166;28;20033;-38
2021/09/27 03:10:11;;;;;;;16.00;9.80;;;;;;;19.63;52.73;99951.38;5069810;28;20032;-36
2021/09/27 03:12:50;;;;;;;18.50;10.23;;;;;;;19.54;53.49;99951.03;5056701;28;20118;-36
2021/09/27 03:15:40;;;;;;;17.27;10.02;;;;;;;19.49;53.12;99941.00;5065013;28;20117;-38
2021/09/27 03:18:32;;;;;;;13.38;8.70;;;;;;;19.58;52.87;99948.66;5056455;28;20024;-37
2021/09/27 03:21:36;;;;;;;18.30;9.60;;;;;;;19.52;52.76;99950.50;5053786;28;20449;-37
2021/09/27 03:24:07;;;;;;;15.57;9.82;;;;;;;19.28;53.54;99950.00;4995484;28;20076;-37
2021/09/27 03:27:06;;;;;;;16.00;9.50;;;;;;;19.37;53.23;99953.88;5008236;28;20049;-37
2021/09/27 03:29:38;;;;;;;13.30;9.00;;;;;;;19.36;53.38;99959.50;5021482;28;20484;-37
2021/09/27 03:32:25;;;;;;;17.83;9.50;;;;;;;19.46;52.90;99962.31;5069728;28;20447;-37
2021/09/27 03:35:05;;;;;;;14.48;8.95;;;;;;;19.29;53.52;99954.34;5069716;28;20063;-37
2021/09/27 03:37:52;;;;;;;14.70;8.93;;;;;;;19.24;53.88;99960.50;5054344;28;20044;-37
2021/09/27 03:40:17;;;;;;;13.45;8.35;;;;;;;19.30;52.67;99959.47;5061900;28;20060;-37
2021/09/27 03:42:57;;;;;;;13.73;8.43;;;;;;;19.29;52.48;99952.44;5051156;28;20482;-37
2021/09/27 03:45:28;;;;;;;21.42;9.48;;;;;;;19.24;52.71;99941.59;5070483;28;20024;-37
2021/09/27 03:48:01;;;;;;;16.90;9.15;;;;;;;19.07;53.82;99938.22;5048538;28;20127;-37
2021/09/27 03:50:46;;;;;;;17.58;9.05;;;;;;;18.96;53.78;99945.38;5061422;28;20063;-36
2021/09/27 03:53:20;;;;;;;17.30;8.98;;;;;;;18.73;54.28;99941.06;5040664;28;20497;-38
2021/09/27 03:55:51;;;;;;;17.30;9.43;;;;;;;18.74;53.88;99943.50;5047006;28;20022;-37
2021/09/27 03:58:23;;;;;;;16.70;9.20;;;;;;;18.75;54.13;99955.09;5034247;28;20031;-37
2021/09/27 04:00:56;;;;;;;15.05;9.02;;;;;;;18.66;54.52;99962.03;5041890;28;20121;-37
2021/09/27 04:04:04;;;;;;;19.45;9.73;;;;;;;18.69;54.96;99966.88;5054371;28;20364;-36
2021/09/27 04:06:35;;;;;;;15.07;8.85;;;;;;;18.69;54.71;99962.31;5049495;28;20072;-37
2021/09/27 04:09:19;;;;;;;16.90;9.15;;;;;;;18.76;54.66;99975.59;5057250;28;20048;-37
2021/09/27 04:11:51;;;;;;;16.70;9.30;;;;;;;18.87;54.36;99979.28;5057197;28;20086;-37
2021/09/27 04:14:36;;;;;;;167.48;101.45;;;;;;;18.91;54.78;99988.47;5041507;28;20045;-37
2021/09/27 04:17:05;;;;;;;43.20;26.20;;;;;;;18.98;54.08;99994.47;5062756;28;20082;-37
2021/09/27 04:19:36;;;;;;;22.00;10.88;;;;;;;18.93;53.80;99994.44;5054585;28;20453;-37
2021/09/27 04:22:11;;;;;;;16.90;9.70;;;;;;;19.03;53.53;99985.63;5065235;28;20027;-37
2021/09/27 04:24:42;;;;;;;19.77;9.27;;;;;;;19.07;53.68;99994.84;5052750;28;20021;-37
2021/09/27 04:27:29;;;;;;;17.10;9.15;;;;;;;19.01;53.82;99995.88;5068411;28;20035;-37
2021/09/27 04:30:17;;;;;;;17.90;8.82;;;;;;;19.12;53.51;100001.13;5044339;28;20094;-37
2021/09/27 04:33:08;;;;;;;14.63;8.95;;;;;;;19.50;52.78;100006.63;5057546;28;20031;-36
2021/09/27 04:35:45;;;;;;;18.17;9.53;;;;;;;19.53;52.34;100001.53;5068167;28;20467;-37
2021/09/27 04:38:11;;;;;;;26.55;10.25;;;;;;;19.63;52.40;99986.47;5052460;28;20125;-35
2021/09/27 04:41:18;;;;;;;19.63;10.10;;;;;;;19.75;51.94;99984.44;5058273;28;20025;-37
2021/09/27 04:43:59;;;;;;;25.33;12.20;;;;;;;19.97;51.79;99991.59;5040913;28;20103;-37
2021/09/27 04:46:44;;;;;;;24.02;11.13;;;;;;;20.11;51.50;99995.50;5060946;28;20393;-37
2021/09/27 04:49:25;;;;;;;28.98;10.05;;;;;;;20.40;51.09;99995.13;5065125;28;20468;-37
2021/09/27 04:52:18;;;;;;;30.95;11.25;;;;;;;20.56;50.39;99991.44;5042176;28;20080;-37
2021/09/27 04:55:06;;;;;;;26.15;10.95;;;;;;;20.65;50.68;99989.06;5069430;28;20029;-36
2021/09/27 04:57:50;;;;;;;23.88;11.02;;;;;;;20.89;49.46;99990.22;5053982;28;20028;-37
2021/09/27 05:00:35;;;;;;;21.15;10.60;;;;;;;21.17;49.41;99995.41;5045837;28;20104;-49
2021/09/27 05:03:47;;;;;;;25.10;12.00;;;;;;;21.47;50.51;100006.31;5062433;28;20025;-49
2021/09/27 05:06:37;;;;;;;26.35;13.32;;;;;;;21.95;48.64;100013.38;5023192;28;20194;-49
2021/09/27 05:09:10;;;;;;;25.52;12.45;;;;;;;22.14;47.79;100014.44;5050875;28;20025;-49
2021/09/27 05:11:57;;;;;;;35.08;14.95;;;;;;;22.43;45.72;100003.81;5043062;28;20031;-47
2021/09/27 05:14:33;;;;;;;25.10;11.90;;;;;;;22.86;44.71;100010.72;5044327;28;20037;-47
2021/09/27 05:17:23;;;;;;;21.17;11.00;;;;;;;23.13;44.58;100010.31;5038579;28;20064;-46
2021/09/27 05:20:25;;;;;;;24.30;10.55;;;;;;;23.57;43.26;100018.47;5041691;28;20429;-47
2021/09/27 05:23:02;;;;;;;22.40;10.23;;;;;;;23.78;42.65;100008.28;5057436;28;20021;-47
2021/09/27 05:25:41;;;;;;;27.08;9.35;;;;;;;24.09;41.67;100009.91;5066928;28;20058;-46
2021/09/27 05:28:21;;;;;;;20.23;8.18;;;;;;;24.39;40.74;100016.94;5057937;28;20020;-48
2021/09/27 05:31:14;;;;;;;22.63;9.27;;;;;;;24.83;39.96;100012.34;5054853;28;20107;-49
2021/09/27 05:34:00;;;;;;;15.43;8.40;;;;;;;25.17;39.01;100004.81;5037365;28;20028;-47
2021/09/27 05:36:54;;;;;;;16.67;8.80;;;;;;;25.41;38.50;100003.91;5057236;28;20078;-47
2021/09/27 05:39:37;;;;;;;18.48;8.70;;;;;;;25.87;38.07;100000.44;5063011;28;20063;-48
2021/09/27 05:42:08;;;;;;;18.75;8.60;;;;;;;25.76;37.89;99993.56;5055650;28;20044;-48
2021/09/27 05:45:11;;;;;;;25.60;9.43;;;;;;;25.41;38.77;99987.56;5056295;28;20021;-49
2021/09/27 05:47:55;;;;;;;18.60;9.60;;;;;;;25.35;38.29;99991.50;5038112;28;20093;-47
2021/09/27 05:50:26;;;;;;;18.90;9.25;;;;;;;25.29;38.61;99985.31;5061178;28;20017;-49
2021/09/27 05:53:14;;;;;;;19.60;9.43;;;;;;;25.28;38.73;99982.88;5064562;28;20048;-47
2021/09/27 05:55:48;;;;;;;16.15;8.75;;;;;;;25.97;37.64;99987.78;5037545;28;20032;-46
2021/09/27 05:58:42;;;;;;;20.63;9.43;;;;;;;26.17;37.11;99983.88;5060846;28;20391;-47
2021/09/27 06:01:24;;;;;;;19.67;8.48;;;;;;;26.58;35.95;99988.50;5065435;28;20052;-47
2021/09/27 06:04:07;;;;;;;15.75;8.30;;;;;;;27.08;34.80;99997.56;5039198;28;20062;-47
2021/09/27 06:06:43;;;;;;;16.45;8.68;;;;;;;27.61;33.27;99985.13;5066696;28;20500;-47
2021/09/27 06:09:28;;;;;;;14.25;7.53;;;;;;;27.84;33.14;99994.13;5036607;28;20025;-46
2021/09/27 06:12:14;;;;;;;16.85;8.15;;;;;;;28.16;32.79;99985.91;5042216;28;20051;-46
2021/09/27 06:14:40;;;;;;;16.60;7.93;;;;;;;28.57;32.27;99982.88;5055824;28;20075;-49
2021/09/27 06:17:38;;;;;;;12.63;8.05;;;;;;;29.19;31.03;99981.88;5064321;28;20613;-46
2021/09/27 06:20:09;;;;;;;16.13;8.98;;;;;;;29.31;30.76;99991.38;5043522;28;20141;-49
2021/09/27 06:22:35;;;;;;;17.95;8.65;;;;;;;29.09;30.50;99992.28;5056803;28;20025;-46
2021/09/27 06:25:34;;;;;;;15.70;8.00;;;;;;;29.17;30.49;99999.75;5065285;28;20020;-47
2021/09/27 06:27:59;;;;;;;18.85;8.80;;;;;;;29.18;29.91;99995.88;5043660;28;20529;-47
2021/09/27 06:30:27;;;;;;;14.65;7.43;;;;;;;29.18;29.53;99988.47;5059841;28;20083;-46
2021/09/27 06:33:22;;;;;;;14.20;7.40;;;;;;;29.10;29.50;100002.13;5062865;28;20021;-46
2021/09/27 06:35:49;;;;;;;18.50;7.63;;;;;;;29.02;29.73;100015.50;5025741;28;20020;-48
2021/09/27 06:38:15;;;;;;;16.05;7.30;;;;;;;29.46;29.68;100012.00;5059597;28;20056;-47
2021/09/27 06:40:42;;;;;;;15.52;6.95;;;;;;;29.78;29.46;100014.25;5039534;28;20040;-48
2021/09/27 06:43:11;;;;;;;12.48;7.40;;;;;;;29.59;28.97;100006.34;5066250;28;20090;-46
2021/09/27 06:45:37;;;;;;;12.82;7.35;;;;;;;30.32;28.04;100011.00;5037398;28;20111;-47
2021/09/27 06:48:03;;;;;;;17.60;7.25;;;;;;;30.78;27.48;100025.00;5062391;28;20368;-46
2021/09/27 06:50:29;;;;;;;11.57;6.60;;;;;;;30.91;27.10;100023.16;5060623;28;20027;-46
2021/09/27 06:52:54;;;;;;;13.50;6.68;;;;;;;31.12;26.55;100023.97;5055148;28;20036;-46
2021/09/27 06:55:20;;;;;;;16.05;6.78;;;;;;;31.18;26.31;100017.13;5065947;28;20016;-47
2021/09/27 06:57:46;;;;;;;15.43;8.82;;;;;;;31.40;26.04;100031.69;5054672;28;20063;-47
2021/09/27 07:00:14;;;;;;;25.35;16.52;;;;;;;31.51;26.02;100027.41;5061056;28;20131;-48
2021/09/27 07:02:39;;;;;;;12.02;8.73;;;;;;;31.35;26.58;100029.13;5059879;28;20032;-47
2021/09/27 07:05:07;;;;;;;11.65;6.32;;;;;;;32.04;25.56;100032.41;5053404;28;20365;-48
2021/09/27 07:07:32;;;;;;;15.57;7.13;;;;;;;32.36;25.65;100021.66;5066239;28;20412;-48
2021/09/27 07:09:58;;;;;;;16.83;9.82;;;;;;;32.38;25.04;100022.91;5056463;28;20029;-48
2021/09/27 07:12:23;;;;;;;18.33;10.15;;;;;;;32.48;25.25;100024.41;5061550;28;20025;-46
2021/09/27 07:14:49;;;;;;;18.85;8.05;;;;;;;32.76;24.92;100026.50;5067504;28;20515;-47
2021/09/27 07:17:14;;;;;;;19.75;8.18;;;;;;;31.19;26.86;100020.72;5057027;28;20021;-46
2021/09/27 07:19:40;;;;;;;17.55;8.80;;;;;;;31.65;25.78;100012.56;5069160;28;20063;-46
2021/09/27 07:22:08;;;;;;;18.25;8.30;;;;;;;31.28;26.33;100012.38;5061143;28;20031;-46
2021/09/27 07:24:33;;;;;;;15.77;8.63;;;;;;;31.17;26.59;100006.50;5061936;28;20040;-48
2021/09/27 07:26:59;;;;;;;16.23;8.05;;;;;;;31.42;26.44;100012.91;5068368;28;20024;-46
2021/09/27 07:29:25;;;;;;;14.73;8.35;;;;;;;31.81;25.59;100008.00;5056962;28;20481;-48
2021/09/27 07:31:51;;;;;;;24.70;7.65;;;;;;;32.03;25.40;100011.53;5067174;28;20029;-46
2021/09/27 07:34:17;;;;;;;11.73;7.43;;;;;;;32.33;25.13;100001.13;5062791;28;20364;-45
2021/09/27 07:36:42;;;;;;;14.93;7.65;;;;;;;32.10;25.34;99998.00;5060679;28;20334;-46
2021/09/27 07:39:08;;;;;;;12.13;6.75;;;;;;;32.18;25.05;99999.03;5069496;28;20134;-48
2021/09/27 07:41:33;;;;;;;13.65;6.90;;;;;;;31.84;25.54;100012.84;5056293;28;20030;-46
2021/09/27 07:43:59;;;;;;;11.20;6.32;;;;;;;31.98;24.65;100011.72;5066067;28;20061;-49
2021/09/27 07:46:25;;;;;;;13.15;5.82;;;;;;;32.01;24.94;100000.84;5063700;28;20465;-47
2021/09/27 07:48:51;;;;;;;10.82;6.70;;;;;;;32.52;24.33;100000.56;5058883;28;20103;-48
2021/09/27 07:51:17;;;;;;;9.80;6.00;;;;;;;32.82;24.50;100000.31;5069457;28;20107;-47
2021/09/27 07:53:42;;;;;;;12.05;6.22;;;;;;;32.54;24.80;99999.06;5057474;28;20016;-47
2021/09/27 07:56:08;;;;;;;10.95;5.95;;;;;;;32.14;25.16;100005.25;5064930;28;20400;-46
2021/09/27 07:58:33;;;;;;;9.95;5.90;;;;;;;32.60;25.30;100016.19;5064420;28;20028;-46
2021/09/27 08:00:59;;;;;;;10.32;5.53;;;;;;;32.59;24.06;100011.00;5057151;28;20075;-47
2021/09/27 08:03:24;;;;;;;10.15;5.82;;;;;;;32.76;24.23;100005.25;5069075;28;20028;-46
2021/09/27 08:05:50;;;;;;;9.73;5.10;;;;;;;33.03;23.58;100006.44;5056535;28;20400;-46
2021/09/27 08:08:16;;;;;;;8.23;5.00;;;;;;;32.68;23.97;100011.69;5063567;28;20032;-49
2021/09/27 08:10:42;;;;;;;10.20;5.35;;;;;;;32.30;24.32;100002.59;5065110;28;20047;-47
2021/09/27 08:13:07;;;;;;;8.20;5.10;;;;;;;32.51;24.49;100002.50;5056028;28;20108;-48
2021/09/27 08:15:38;;;;;;;11.43;5.72;;;;;;;32.87;24.14;100002.81;5069004;28;20051;-49
2021/09/27 08:18:05;;;;;;;8.35;4.82;;;;;;;32.72;24.42;99996.06;5058734;28;20439;-46
2021/09/27 08:20:38;;;;;;;11.07;5.70;;;;;;;32.79;24.19;99990.78;5061045;28;20032;-47
2021/09/27 08:23:04;;;;;;;9.02;4.88;;;;;;;33.31;23.71;100006.50;5067013;28;20154;-48
2021/09/27 08:25:29;;;;;;;7.63;4.63;;;;;;;33.46;23.74;99982.09;5055467;28;20405;-49
2021/09/27 08:27:55;;;;;;;12.27;5.07;;;;;;;33.46;23.30;99985.66;5065768;28;20130;-48
2021/09/27 08:30:24;;;;;;;9.02;4.78;;;;;;;33.46;23.32;99985.66;5060720;28;20032;-49
2021/09/27 08:32:49;;;;;;;;;;;;;;;32.79;23.76;99971.50;5057622;28;20087;-47
2021/09/27 08:35:15;;;;;;;11.18;4.82;;;;;;;32.70;24.11;99990.91;5068143;28;20331;-47
2021/09/27 08:37:42;;;;;;;8.93;5.55;;;;;;;32.60;24.10;99991.38;5055201;28;20025;-49
2021/09/27 08:40:10;;;;;;;9.50;4.70;;;;;;;32.75;23.88;99992.63;5063084;28;20044;-48
2021/09/27 08:42:40;;;;;;;7.13;4.50;;;;;;;32.31;24.13;99982.19;5060644;28;20025;-49
2021/09/27 08:45:17;;;;;;;7.93;4.43;;;;;;;33.09;24.04;99988.53;5048739;28;20043;-47
2021/09/27 08:48:08;;;;;;;9.32;4.93;;;;;;;33.63;23.57;99975.47;5038388;28;20441;-46
2021/09/27 08:50:39;;;;;;;8.05;4.55;;;;;;;34.27;23.14;99968.84;5038593;28;20099;-48
2021/09/27 08:53:25;;;;;;;8.00;4.45;;;;;;;34.36;22.68;99974.16;5065051;28;20027;-46
2021/09/27 08:55:51;;;;;;;7.03;4.00;;;;;;;33.87;22.98;99969.00;5042779;28;20105;-47
2021/09/27 08:58:29;;;;;;;10.85;4.47;;;;;;;33.84;22.64;99966.97;5060652;28;20040;-46
2021/09/27 09:00:56;;;;;;;9.23;5.00;;;;;;;33.36;23.37;99960.53;5066090;28;20024;-49
2021/09/27 09:03:44;;;;;;;13.85;4.60;;;;;;;32.63;24.33;99960.38;5037115;28;20099;-45
2021/09/27 09:06:43;;;;;;;6.35;4.35;;;;;;;32.37;24.58;99954.41;5068280;28;20426;-47
2021/09/27 09:09:26;;;;;;;7.95;4.53;;;;;;;32.45;24.93;99953.50;5050827;28;20098;-49
2021/09/27 09:12:12;;;;;;;6.50;4.53;;;;;;;32.92;24.64;99948.28;5039254;28;20059;-47
2021/09/27 09:14:45;;;;;;;8.40;4.55;;;;;;;32.49;24.40;99940.66;5057710;28;20107;-47
2021/09/27 09:17:18;;;;;;;8.52;4.70;;;;;;;31.08;25.82;99951.59;5066444;28;20024;-46
2021/09/27 09:19:44;;;;;;;8.98;4.68;;;;;;;30.59;27.13;99943.84;5056003;28;20031;-46
2021/09/27 09:22:36;;;;;;;11.20;5.18;;;;;;;30.30;27.23;99941.91;5062511;28;20032;-47
2021/09/27 09:25:28;;;;;;;7.10;4.50;;;;;;;30.66;26.76;99935.09;5066594;28;20035;-47
2021/09/27 09:27:54;;;;;;;6.47;4.47;;;;;;;30.37;26.73;99941.44;5042241;28;20024;-48
2021/09/27 09:30:22;;;;;;;5.82;4.60;;;;;;;30.52;26.91;99929.03;5060935;28;20021;-48
2021/09/27 09:32:51;;;;;;;9.77;4.57;;;;;;;30.98;26.40;99933.56;5046193;28;20036;-48
2021/09/27 09:35:31;;;;;;;6.40;4.80;;;;;;;30.49;26.72;99937.97;5052635;28;20056;-48
2021/09/27 09:37:59;;;;;;;;;;;;;;;30.38;27.08;99921.84;5062922;28;20025;-48
2021/09/27 09:40:27;;;;;;;6.65;4.85;;;;;;;30.47;27.21;99912.78;5061151;28;20012;-47
2021/09/27 09:43:09;;;;;;;8.02;4.80;;;;;;;30.49;27.62;99918.75;5055986;28;20024;-45
2021/09/27 09:45:39;;;;;;;8.23;4.40;;;;;;;30.91;26.70;99905.84;5037587;28;20116;-47
2021/09/27 09:48:11;;;;;;;8.07;4.50;;;;;;;31.62;26.04;99901.28;5062858;28;20043;-47
2021/09/27 09:50:37;;;;;;;10.13;4.85;;;;;;;31.97;25.33;99903.63;5062366;28;20093;-47
2021/09/27 09:53:03;;;;;;;10.95;4.78;;;;;;;32.11;25.13;99897.78;5054574;28;20462;-49
2021/09/27 09:55:35;;;;;;;10.52;4.60;;;;;;;31.58;25.95;99899.56;5048755;28;20033;-47
2021/09/27 09:58:09;;;;;;;8.48;4.40;;;;;;;31.76;25.62;99884.47;5056167;28;20395;-46
2021/09/27 10:00:47;;;;;;;8.63;4.60;;;;;;;32.21;25.25;99897.31;5037576;28;20433;-50
2021/09/27 10:03:16;;;;;;;7.30;4.47;;;;;;;32.35;25.43;99894.22;5063063;28;20024;-49
2021/09/27 10:06:03;;;;;;;9.65;4.28;;;;;;;32.38;24.97;99892.72;5053473;28;20484;-46
2021/09/27 10:08:28;;;;;;;8.63;4.70;;;;;;;32.05;25.07;99874.41;5063534;28;20391;-46
2021/09/27 10:10:56;;;;;;;7.10;4.68;;;;;;;31.87;25.34;99882.88;5054649;28;20040;-47
2021/09/27 10:13:33;;;;;;;8.25;4.57;;;;;;;31.96;25.55;99869.78;5065006;28;20182;-47
2021/09/27 10:16:00;;;;;;;9.40;4.88;;;;;;;31.85;25.67;99876.09;5056739;28;20029;-48
2021/09/27 10:18:30;;;;;;;7.43;4.57;;;;;;;31.56;26.65;99875.94;5058126;28;20412;-46
2021/09/27 10:21:31;;;;;;;8.25;4.20;;;;;;;31.11;27.02;99882.25;5064933;28;20035;-49
2021/09/27 10:24:12;;;;;;;6.38;4.43;;;;;;;31.72;26.03;99872.53;5034090;28;20032;-47
2021/09/27 10:26:39;;;;;;;5.85;4.10;;;;;;;31.13;25.97;99879.13;5061850;28;20040;-48
2021/09/27 10:29:10;;;;;;;9.05;4.30;;;;;;;31.24;26.31;99868.53;5053781;28;20021;-49
2021/09/27 10:31:37;;;;;;;10.38;4.95;;;;;;;30.43;27.44;99867.94;5036277;28;20016;-48
2021/09/27 10:34:08;;;;;;;9.82;4.30;;;;;;;31.06;26.20;99873.41;5062508;28;20090;-48
2021/09/27 10:36:36;;;;;;;5.32;4.28;;;;;;;31.00;26.18;99856.31;5060370;28;20445;-47
2021/09/27 10:39:04;;;;;;;7.82;4.22;;;;;;;31.44;26.13;99862.16;5052729;28;20554;-50
2021/09/27 10:41:39;;;;;;;8.07;4.95;;;;;;;30.91;26.77;99856.38;5066580;28;20099;-46
2021/09/27 10:44:11;;;;;;;6.47;4.25;;;;;;;31.03;26.83;99847.38;5057475;28;20028;-48
2021/09/27 10:46:39;;;;;;;9.90;4.50;;;;;;;30.94;26.70;99843.94;5039369;28;20060;-46
2021/09/27 10:49:05;;;;;;;4.53;4.00;;;;;;;30.99;27.00;99832.72;5065184;28;20499;-46
2021/09/27 10:51:35;;;;;;;9.10;4.40;;;;;;;31.14;26.47;99836.78;5050114;28;20129;-49
2021/09/27 10:54:37;;;;;;;6.25;4.03;;;;;;;30.87;27.11;99827.97;5049237;28;20048;-48
2021/09/27 10:57:11;;;;;;;7.80;4.57;;;;;;;31.24;26.00;99819.84;5065246;28;20039;-48
2021/09/27 10:59:47;;;;;;;6.03;4.28;;;;;;;30.93;27.07;99815.66;5036049;28;20498;-46
2021/09/27 11:02:22;;;;;;;6.05;4.20;;;;;;;30.92;26.49;99814.06;5059068;28;20348;-47
2021/09/27 11:04:47;;;;;;;9.10;4.18;;;;;;;31.82;25.55;99805.28;5062341;28;20035;-47
2021/09/27 11:07:31;;;;;;;7.30;4.20;;;;;;;31.85;25.60;99810.84;5042624;28;20033;-47
2021/09/27 11:09:58;;;;;;;6.47;4.07;;;;;;;31.52;25.67;99798.03;5061796;28;20029;-48
2021/09/27 11:12:43;;;;;;;5.90;4.20;;;;;;;32.37;25.08;99795.56;5058637;28;20032;-49
2021/09/27 11:15:34;;;;;;;7.15;4.10;;;;;;;32.93;24.38;99790.03;5052732;28;20044;-47
2021/09/27 11:18:29;;;;;;;6.88;4.10;;;;;;;32.60;24.79;99789.53;5041862;28;20016;-47
2021/09/27 11:20:55;;;;;;;8.60;4.10;;;;;;;32.65;24.64;99779.06;5038690;28;20024;-46
2021/09/27 11:23:26;;;;;;;6.95;4.25;;;;;;;32.52;25.28;99783.00;5065862;28;20020;-46
2021/09/27 11:26:10;;;;;;;5.78;4.10;;;;;;;32.85;24.49;99771.72;5054887;28;20035;-46
2021/09/27 11:28:52;;;;;;;9.93;4.40;;;;;;;32.12;25.59;99779.09;5057154;28;20489;-46
2021/09/27 11:31:27;;;;;;;8.98;4.45;;;;;;;31.83;25.94;99780.13;5064372;28;20036;-45
2021/09/27 11:33:53;;;;;;;6.18;4.10;;;;;;;32.12;25.44;99776.34;5055256;28;20027;-45
2021/09/27 11:36:18;;;;;;;9.57;4.20;;;;;;;31.95;26.04;99769.13;5059739;28;20074;-47
2021/09/27 11:39:15;;;;;;;4.38;3.97;;;;;;;32.10;25.45;99764.06;5062513;28;20024;-46
2021/09/27 11:41:41;;;;;;;7.55;4.40;;;;;;;31.99;25.75;99760.16;5037585;28;20047;-46
2021/09/27 11:44:14;;;;;;;6.63;4.18;;;;;;;31.33;26.41;99762.03;5061101;28;20018;-46
2021/09/27 11:47:10;;;;;;;6.32;4.05;;;;;;;31.20;26.48;99750.22;5062119;28;20045;-46
2021/09/27 11:49:51;;;;;;;5.82;4.35;;;;;;;30.86;26.88;99748.66;5035427;28;20388;-49
2021/09/27 11:52:28;;;;;;;7.88;4.30;;;;;;;30.60;27.50;99747.78;5058327;28;20020;-48
2021/09/27 11:54:54;;;;;;;10.85;3.97;;;;;;;30.42;28.00;99756.50;5062423;28;20074;-47
2021/09/27 11:57:28;;;;;;;5.55;4.05;;;;;;;30.27;28.05;99753.19;5051688;28;20029;-48
2021/09/27 11:59:59;;;;;;;6.28;3.88;;;;;;;30.79;27.27;99754.72;5066276;28;20458;-47